sensor_id;sensor_type;location;lat;lon;timestamp;P1;durP1;ratioP1;P2;durP2;ratioP2
16766;SDS011;8501;49.926;8.404;2023-07-16T00:00:05;6.07;;;3.10;;
16766;SDS011;8501;49.926;8.404;2023-07-16T00:02:33;5.60;;;3.10;;
16766;SDS011;8501;49.926;8.404;2023-07-16T00:04:58;4.35;;;3.28;;
16766;SDS011;8501;49.926;8.404;2023-07-16T00:07:24;5.30;;;3.08;;
16766;SDS011;8501;49.926;8.404;2023-07-16T00:09:49;5.47;;;3.40;;
16766;SDS011;8501;49.926;8.404;2023-07-16T00:12:15;5.35;;;3.15;;
16766;SDS011;8501;49.926;8.404;2023-07-16T00:14:41;4.53;;;2.92;;
16766;SDS011;8501;49.926;8.404;2023-07-16T00:17:06;6.45;;;3.10;;
16766;SDS011;8501;49.926;8.404;2023-07-16T00:19:32;6.45;;;3.20;;
16766;SDS011;8501;49.926;8.404;2023-07-16T00:21:57;4.63;;;3.03;;
16766;SDS011;8501;49.926;8.404;2023-07-16T00:24:23;3.58;;;2.65;;
16766;SDS011;8501;49.926;8.404;2023-07-16T00:26:48;5.45;;;2.97;;
16766;SDS011;8501;49.926;8.404;2023-07-16T00:29:14;4.30;;;2.45;;
16766;SDS011;8501;49.926;8.404;2023-07-16T00:31:39;4.40;;;2.75;;
16766;SDS011;8501;49.926;8.404;2023-07-16T00:34:05;4.15;;;2.78;;
16766;SDS011;8501;49.926;8.404;2023-07-16T00:36:30;4.20;;;2.67;;
16766;SDS011;8501;49.926;8.404;2023-07-16T00:38:56;3.65;;;2.50;;
16766;SDS011;8501;49.926;8.404;2023-07-16T00:41:22;3.78;;;2.55;;
16766;SDS011;8501;49.926;8.404;2023-07-16T00:43:47;4.15;;;2.50;;
16766;SDS011;8501;49.926;8.404;2023-07-16T00:46:13;5.38;;;2.38;;
16766;SDS011;8501;49.926;8.404;2023-07-16T00:48:39;4.55;;;2.53;;
16766;SDS011;8501;49.926;8.404;2023-07-16T00:51:06;4.28;;;2.30;;
16766;SDS011;8501;49.926;8.404;2023-07-16T00:53:32;4.97;;;2.30;;
16766;SDS011;8501;49.926;8.404;2023-07-16T00:55:58;2.72;;;2.38;;
16766;SDS011;8501;49.926;8.404;2023-07-16T00:58:24;4.63;;;2.60;;
16766;SDS011;8501;49.926;8.404;2023-07-16T01:00:50;5.55;;;2.72;;
16766;SDS011;8501;49.926;8.404;2023-07-16T01:03:16;4.13;;;2.25;;
16766;SDS011;8501;49.926;8.404;2023-07-16T01:08:14;3.78;;;2.45;;
16766;SDS011;8501;49.926;8.404;2023-07-16T01:10:51;5.03;;;2.30;;
16766;SDS011;8501;49.926;8.404;2023-07-16T01:13:17;3.85;;;2.22;;
16766;SDS011;8501;49.926;8.404;2023-07-16T01:15:43;2.88;;;2.40;;
16766;SDS011;8501;49.926;8.404;2023-07-16T01:18:09;4.45;;;2.50;;
16766;SDS011;8501;49.926;8.404;2023-07-16T01:20:34;3.85;;;2.55;;
16766;SDS011;8501;49.926;8.404;2023-07-16T01:23:05;3.72;;;2.50;;
16766;SDS011;8501;49.926;8.404;2023-07-16T01:25:58;4.95;;;2.42;;
16766;SDS011;8501;49.926;8.404;2023-07-16T01:31:27;3.28;;;2.17;;
16766;SDS011;8501;49.926;8.404;2023-07-16T01:33:53;5.95;;;2.20;;
16766;SDS011;8501;49.926;8.404;2023-07-16T01:36:20;3.00;;;2.10;;
16766;SDS011;8501;49.926;8.404;2023-07-16T01:38:47;3.75;;;2.30;;
16766;SDS011;8501;49.926;8.404;2023-07-16T01:41:12;4.65;;;2.53;;
16766;SDS011;8501;49.926;8.404;2023-07-16T01:43:38;2.78;;;2.38;;
16766;SDS011;8501;49.926;8.404;2023-07-16T01:46:03;4.18;;;2.45;;
16766;SDS011;8501;49.926;8.404;2023-07-16T01:48:31;3.65;;;2.35;;
16766;SDS011;8501;49.926;8.404;2023-07-16T01:50:58;6.15;;;2.45;;
16766;SDS011;8501;49.926;8.404;2023-07-16T01:53:24;5.47;;;2.58;;
16766;SDS011;8501;49.926;8.404;2023-07-16T01:55:50;3.78;;;2.22;;
16766;SDS011;8501;49.926;8.404;2023-07-16T01:58:15;4.80;;;2.78;;
16766;SDS011;8501;49.926;8.404;2023-07-16T02:00:41;5.18;;;2.55;;
16766;SDS011;8501;49.926;8.404;2023-07-16T02:03:07;5.57;;;2.40;;
16766;SDS011;8501;49.926;8.404;2023-07-16T02:05:32;4.18;;;2.42;;
16766;SDS011;8501;49.926;8.404;2023-07-16T02:07:58;3.65;;;2.40;;
16766;SDS011;8501;49.926;8.404;2023-07-16T02:10:24;6.15;;;2.40;;
16766;SDS011;8501;49.926;8.404;2023-07-16T02:12:49;5.22;;;2.70;;
16766;SDS011;8501;49.926;8.404;2023-07-16T02:15:15;4.82;;;2.53;;
16766;SDS011;8501;49.926;8.404;2023-07-16T02:17:40;6.47;;;2.67;;
16766;SDS011;8501;49.926;8.404;2023-07-16T02:20:06;5.45;;;2.53;;
16766;SDS011;8501;49.926;8.404;2023-07-16T02:22:33;4.93;;;2.65;;
16766;SDS011;8501;49.926;8.404;2023-07-16T02:25:00;4.10;;;2.70;;
16766;SDS011;8501;49.926;8.404;2023-07-16T02:27:26;5.38;;;2.78;;
16766;SDS011;8501;49.926;8.404;2023-07-16T02:29:51;5.03;;;2.80;;
16766;SDS011;8501;49.926;8.404;2023-07-16T02:32:17;4.57;;;2.60;;
16766;SDS011;8501;49.926;8.404;2023-07-16T02:34:42;6.43;;;3.28;;
16766;SDS011;8501;49.926;8.404;2023-07-16T02:37:08;5.10;;;3.10;;
16766;SDS011;8501;49.926;8.404;2023-07-16T02:39:33;6.55;;;2.95;;
16766;SDS011;8501;49.926;8.404;2023-07-16T02:41:59;6.10;;;3.00;;
16766;SDS011;8501;49.926;8.404;2023-07-16T02:44:24;6.90;;;3.50;;
16766;SDS011;8501;49.926;8.404;2023-07-16T02:46:50;4.25;;;3.00;;
16766;SDS011;8501;49.926;8.404;2023-07-16T02:49:16;4.00;;;2.72;;
16766;SDS011;8501;49.926;8.404;2023-07-16T02:51:42;4.40;;;3.10;;
16766;SDS011;8501;49.926;8.404;2023-07-16T02:54:07;5.97;;;3.20;;
16766;SDS011;8501;49.926;8.404;2023-07-16T02:56:33;6.70;;;3.08;;
16766;SDS011;8501;49.926;8.404;2023-07-16T02:58:59;5.47;;;3.10;;
16766;SDS011;8501;49.926;8.404;2023-07-16T03:01:25;4.75;;;2.72;;
16766;SDS011;8501;49.926;8.404;2023-07-16T03:03:51;5.15;;;3.00;;
16766;SDS011;8501;49.926;8.404;2023-07-16T03:06:16;5.28;;;3.05;;
16766;SDS011;8501;49.926;8.404;2023-07-16T03:08:42;5.20;;;2.80;;
16766;SDS011;8501;49.926;8.404;2023-07-16T03:11:07;6.53;;;3.20;;
16766;SDS011;8501;49.926;8.404;2023-07-16T03:13:33;6.03;;;3.28;;
16766;SDS011;8501;49.926;8.404;2023-07-16T03:15:58;7.18;;;3.35;;
16766;SDS011;8501;49.926;8.404;2023-07-16T03:18:27;7.95;;;3.25;;
16766;SDS011;8501;49.926;8.404;2023-07-16T03:20:57;4.30;;;2.90;;
16766;SDS011;8501;49.926;8.404;2023-07-16T03:23:23;5.45;;;2.92;;
16766;SDS011;8501;49.926;8.404;2023-07-16T03:25:49;5.80;;;3.17;;
16766;SDS011;8501;49.926;8.404;2023-07-16T03:28:16;4.50;;;2.95;;
16766;SDS011;8501;49.926;8.404;2023-07-16T03:30:45;8.32;;;3.17;;
16766;SDS011;8501;49.926;8.404;2023-07-16T03:33:12;5.15;;;3.15;;
16766;SDS011;8501;49.926;8.404;2023-07-16T03:35:37;5.15;;;3.17;;
16766;SDS011;8501;49.926;8.404;2023-07-16T03:38:03;5.45;;;3.20;;
16766;SDS011;8501;49.926;8.404;2023-07-16T03:40:28;8.68;;;3.50;;
16766;SDS011;8501;49.926;8.404;2023-07-16T03:42:55;6.38;;;3.22;;
16766;SDS011;8501;49.926;8.404;2023-07-16T03:45:20;10.05;;;3.50;;
16766;SDS011;8501;49.926;8.404;2023-07-16T03:47:46;6.88;;;3.58;;
16766;SDS011;8501;49.926;8.404;2023-07-16T03:50:11;7.70;;;3.42;;
16766;SDS011;8501;49.926;8.404;2023-07-16T03:52:37;7.50;;;3.13;;
16766;SDS011;8501;49.926;8.404;2023-07-16T03:55:03;7.78;;;3.33;;
16766;SDS011;8501;49.926;8.404;2023-07-16T03:57:28;9.75;;;3.22;;
16766;SDS011;8501;49.926;8.404;2023-07-16T03:59:54;8.30;;;3.38;;
16766;SDS011;8501;49.926;8.404;2023-07-16T04:02:20;5.38;;;2.92;;
16766;SDS011;8501;49.926;8.404;2023-07-16T04:04:46;7.40;;;3.30;;
16766;SDS011;8501;49.926;8.404;2023-07-16T04:07:12;7.57;;;3.10;;
16766;SDS011;8501;49.926;8.404;2023-07-16T04:09:38;7.38;;;3.25;;
16766;SDS011;8501;49.926;8.404;2023-07-16T04:12:05;9.48;;;3.20;;
16766;SDS011;8501;49.926;8.404;2023-07-16T04:14:31;6.30;;;3.00;;
16766;SDS011;8501;49.926;8.404;2023-07-16T04:16:57;8.75;;;3.20;;
16766;SDS011;8501;49.926;8.404;2023-07-16T04:19:22;6.65;;;3.42;;
16766;SDS011;8501;49.926;8.404;2023-07-16T04:21:48;8.88;;;3.40;;
16766;SDS011;8501;49.926;8.404;2023-07-16T04:24:13;4.93;;;3.33;;
16766;SDS011;8501;49.926;8.404;2023-07-16T04:26:39;6.50;;;2.80;;
16766;SDS011;8501;49.926;8.404;2023-07-16T04:29:04;7.93;;;3.38;;
16766;SDS011;8501;49.926;8.404;2023-07-16T04:31:30;5.70;;;3.22;;
16766;SDS011;8501;49.926;8.404;2023-07-16T04:33:55;12.02;;;3.65;;
16766;SDS011;8501;49.926;8.404;2023-07-16T04:36:21;7.80;;;3.50;;
16766;SDS011;8501;49.926;8.404;2023-07-16T04:38:47;8.32;;;3.63;;
16766;SDS011;8501;49.926;8.404;2023-07-16T04:41:12;6.82;;;3.22;;
16766;SDS011;8501;49.926;8.404;2023-07-16T04:43:38;7.03;;;3.40;;
16766;SDS011;8501;49.926;8.404;2023-07-16T04:46:04;11.80;;;3.88;;
16766;SDS011;8501;49.926;8.404;2023-07-16T04:48:29;8.45;;;3.58;;
16766;SDS011;8501;49.926;8.404;2023-07-16T04:50:55;8.88;;;3.35;;
16766;SDS011;8501;49.926;8.404;2023-07-16T04:53:21;6.50;;;3.47;;
16766;SDS011;8501;49.926;8.404;2023-07-16T04:55:47;10.40;;;3.78;;
16766;SDS011;8501;49.926;8.404;2023-07-16T04:58:13;9.15;;;4.10;;
16766;SDS011;8501;49.926;8.404;2023-07-16T05:00:39;6.72;;;3.55;;
16766;SDS011;8501;49.926;8.404;2023-07-16T05:03:04;5.97;;;3.67;;
16766;SDS011;8501;49.926;8.404;2023-07-16T05:05:30;6.72;;;3.40;;
16766;SDS011;8501;49.926;8.404;2023-07-16T05:07:55;4.45;;;3.58;;
16766;SDS011;8501;49.926;8.404;2023-07-16T05:10:21;8.88;;;3.80;;
16766;SDS011;8501;49.926;8.404;2023-07-16T05:12:46;5.38;;;3.50;;
16766;SDS011;8501;49.926;8.404;2023-07-16T05:15:12;10.75;;;3.40;;
16766;SDS011;8501;49.926;8.404;2023-07-16T05:17:38;6.47;;;3.58;;
16766;SDS011;8501;49.926;8.404;2023-07-16T05:20:04;8.05;;;3.45;;
16766;SDS011;8501;49.926;8.404;2023-07-16T05:22:30;6.90;;;3.40;;
16766;SDS011;8501;49.926;8.404;2023-07-16T05:24:57;8.85;;;3.72;;
16766;SDS011;8501;49.926;8.404;2023-07-16T05:27:22;8.32;;;3.90;;
16766;SDS011;8501;49.926;8.404;2023-07-16T05:29:48;6.00;;;3.53;;
16766;SDS011;8501;49.926;8.404;2023-07-16T05:32:13;7.20;;;3.30;;
16766;SDS011;8501;49.926;8.404;2023-07-16T05:34:39;10.23;;;3.67;;
16766;SDS011;8501;49.926;8.404;2023-07-16T05:37:05;5.30;;;3.40;;
16766;SDS011;8501;49.926;8.404;2023-07-16T05:39:31;5.95;;;3.40;;
16766;SDS011;8501;49.926;8.404;2023-07-16T05:41:56;7.40;;;3.47;;
16766;SDS011;8501;49.926;8.404;2023-07-16T05:44:22;6.72;;;3.45;;
16766;SDS011;8501;49.926;8.404;2023-07-16T05:46:47;5.95;;;3.15;;
16766;SDS011;8501;49.926;8.404;2023-07-16T05:49:13;6.35;;;3.55;;
16766;SDS011;8501;49.926;8.404;2023-07-16T05:51:39;9.05;;;3.95;;
16766;SDS011;8501;49.926;8.404;2023-07-16T05:54:04;5.47;;;3.45;;
16766;SDS011;8501;49.926;8.404;2023-07-16T05:56:31;7.45;;;3.70;;
16766;SDS011;8501;49.926;8.404;2023-07-16T05:58:57;6.63;;;3.95;;
16766;SDS011;8501;49.926;8.404;2023-07-16T06:01:22;8.07;;;4.03;;
16766;SDS011;8501;49.926;8.404;2023-07-16T06:03:48;5.80;;;4.15;;
16766;SDS011;8501;49.926;8.404;2023-07-16T06:06:14;6.45;;;3.90;;
16766;SDS011;8501;49.926;8.404;2023-07-16T06:08:40;9.35;;;4.22;;
16766;SDS011;8501;49.926;8.404;2023-07-16T06:11:05;8.10;;;4.40;;
16766;SDS011;8501;49.926;8.404;2023-07-16T06:13:31;7.75;;;4.40;;
16766;SDS011;8501;49.926;8.404;2023-07-16T06:15:56;8.30;;;4.70;;
16766;SDS011;8501;49.926;8.404;2023-07-16T06:18:22;7.72;;;4.78;;
16766;SDS011;8501;49.926;8.404;2023-07-16T06:20:47;7.57;;;4.93;;
16766;SDS011;8501;49.926;8.404;2023-07-16T06:23:13;7.60;;;4.45;;
16766;SDS011;8501;49.926;8.404;2023-07-16T06:25:41;6.95;;;4.55;;
16766;SDS011;8501;49.926;8.404;2023-07-16T06:28:11;7.03;;;4.47;;
16766;SDS011;8501;49.926;8.404;2023-07-16T06:30:37;8.45;;;4.40;;
16766;SDS011;8501;49.926;8.404;2023-07-16T06:33:03;7.60;;;5.00;;
16766;SDS011;8501;49.926;8.404;2023-07-16T06:35:28;9.77;;;5.05;;
16766;SDS011;8501;49.926;8.404;2023-07-16T06:37:54;7.15;;;4.75;;
16766;SDS011;8501;49.926;8.404;2023-07-16T06:40:19;7.82;;;4.70;;
16766;SDS011;8501;49.926;8.404;2023-07-16T06:42:45;9.40;;;4.70;;
16766;SDS011;8501;49.926;8.404;2023-07-16T06:45:11;10.73;;;5.22;;
16766;SDS011;8501;49.926;8.404;2023-07-16T06:47:36;8.55;;;4.47;;
16766;SDS011;8501;49.926;8.404;2023-07-16T06:50:02;8.70;;;4.50;;
16766;SDS011;8501;49.926;8.404;2023-07-16T06:52:28;8.07;;;4.75;;
16766;SDS011;8501;49.926;8.404;2023-07-16T06:54:55;9.65;;;4.40;;
16766;SDS011;8501;49.926;8.404;2023-07-16T06:57:24;9.05;;;4.05;;
16766;SDS011;8501;49.926;8.404;2023-07-16T06:59:50;8.40;;;4.10;;
16766;SDS011;8501;49.926;8.404;2023-07-16T07:02:16;5.68;;;4.32;;
16766;SDS011;8501;49.926;8.404;2023-07-16T07:04:42;8.60;;;4.10;;
16766;SDS011;8501;49.926;8.404;2023-07-16T07:07:07;11.90;;;4.72;;
16766;SDS011;8501;49.926;8.404;2023-07-16T07:09:33;8.90;;;4.47;;
16766;SDS011;8501;49.926;8.404;2023-07-16T07:11:59;6.90;;;4.20;;
16766;SDS011;8501;49.926;8.404;2023-07-16T07:14:24;8.10;;;4.18;;
16766;SDS011;8501;49.926;8.404;2023-07-16T07:16:50;8.48;;;4.28;;
16766;SDS011;8501;49.926;8.404;2023-07-16T07:19:15;6.78;;;4.22;;
16766;SDS011;8501;49.926;8.404;2023-07-16T07:21:41;6.85;;;4.10;;
16766;SDS011;8501;49.926;8.404;2023-07-16T07:24:06;8.60;;;4.72;;
16766;SDS011;8501;49.926;8.404;2023-07-16T07:26:32;7.80;;;4.43;;
16766;SDS011;8501;49.926;8.404;2023-07-16T07:28:57;6.35;;;4.28;;
16766;SDS011;8501;49.926;8.404;2023-07-16T07:31:23;6.25;;;4.55;;
16766;SDS011;8501;49.926;8.404;2023-07-16T07:33:48;10.73;;;4.93;;
16766;SDS011;8501;49.926;8.404;2023-07-16T07:36:14;8.80;;;4.50;;
16766;SDS011;8501;49.926;8.404;2023-07-16T07:38:40;10.95;;;5.15;;
16766;SDS011;8501;49.926;8.404;2023-07-16T07:41:05;10.75;;;4.88;;
16766;SDS011;8501;49.926;8.404;2023-07-16T07:43:31;8.68;;;4.97;;
16766;SDS011;8501;49.926;8.404;2023-07-16T07:45:57;8.30;;;4.65;;
16766;SDS011;8501;49.926;8.404;2023-07-16T07:48:22;8.55;;;4.88;;
16766;SDS011;8501;49.926;8.404;2023-07-16T07:50:48;9.25;;;4.80;;
16766;SDS011;8501;49.926;8.404;2023-07-16T07:53:13;9.45;;;4.22;;
16766;SDS011;8501;49.926;8.404;2023-07-16T07:55:43;7.25;;;4.80;;
16766;SDS011;8501;49.926;8.404;2023-07-16T07:58:09;8.48;;;4.50;;
16766;SDS011;8501;49.926;8.404;2023-07-16T08:00:35;9.13;;;4.32;;
16766;SDS011;8501;49.926;8.404;2023-07-16T08:03:01;7.68;;;4.20;;
16766;SDS011;8501;49.926;8.404;2023-07-16T08:05:27;6.30;;;3.97;;
16766;SDS011;8501;49.926;8.404;2023-07-16T08:07:52;6.20;;;3.90;;
16766;SDS011;8501;49.926;8.404;2023-07-16T08:10:18;11.13;;;4.68;;
16766;SDS011;8501;49.926;8.404;2023-07-16T08:12:44;8.25;;;4.70;;
16766;SDS011;8501;49.926;8.404;2023-07-16T08:15:10;4.85;;;3.65;;
16766;SDS011;8501;49.926;8.404;2023-07-16T08:17:40;7.47;;;3.75;;
16766;SDS011;8501;49.926;8.404;2023-07-16T08:20:07;7.82;;;3.58;;
16766;SDS011;8501;49.926;8.404;2023-07-16T08:22:33;7.85;;;3.97;;
16766;SDS011;8501;49.926;8.404;2023-07-16T08:24:58;7.68;;;3.50;;
16766;SDS011;8501;49.926;8.404;2023-07-16T08:27:24;8.95;;;3.88;;
16766;SDS011;8501;49.926;8.404;2023-07-16T08:29:49;6.32;;;3.30;;
16766;SDS011;8501;49.926;8.404;2023-07-16T08:32:15;8.05;;;3.72;;
16766;SDS011;8501;49.926;8.404;2023-07-16T08:34:40;9.15;;;3.80;;
16766;SDS011;8501;49.926;8.404;2023-07-16T08:37:06;7.78;;;3.90;;
16766;SDS011;8501;49.926;8.404;2023-07-16T08:39:31;8.10;;;3.60;;
16766;SDS011;8501;49.926;8.404;2023-07-16T08:41:57;8.52;;;3.78;;
16766;SDS011;8501;49.926;8.404;2023-07-16T08:44:23;10.98;;;3.58;;
16766;SDS011;8501;49.926;8.404;2023-07-16T08:46:49;6.65;;;3.40;;
16766;SDS011;8501;49.926;8.404;2023-07-16T08:49:16;7.38;;;3.60;;
16766;SDS011;8501;49.926;8.404;2023-07-16T08:51:45;6.90;;;3.30;;
16766;SDS011;8501;49.926;8.404;2023-07-16T08:54:13;6.35;;;3.55;;
16766;SDS011;8501;49.926;8.404;2023-07-16T08:56:42;5.82;;;3.42;;
16766;SDS011;8501;49.926;8.404;2023-07-16T08:59:08;5.90;;;3.47;;
16766;SDS011;8501;49.926;8.404;2023-07-16T09:01:35;5.97;;;3.38;;
16766;SDS011;8501;49.926;8.404;2023-07-16T09:04:02;6.75;;;3.20;;
16766;SDS011;8501;49.926;8.404;2023-07-16T09:06:28;8.02;;;3.88;;
16766;SDS011;8501;49.926;8.404;2023-07-16T09:08:55;5.15;;;3.40;;
16766;SDS011;8501;49.926;8.404;2023-07-16T09:11:21;6.90;;;3.78;;
16766;SDS011;8501;49.926;8.404;2023-07-16T09:13:47;5.15;;;3.22;;
16766;SDS011;8501;49.926;8.404;2023-07-16T09:16:13;7.85;;;3.63;;
16766;SDS011;8501;49.926;8.404;2023-07-16T09:18:41;7.47;;;3.58;;
16766;SDS011;8501;49.926;8.404;2023-07-16T09:21:07;5.93;;;3.70;;
16766;SDS011;8501;49.926;8.404;2023-07-16T09:23:33;5.55;;;3.20;;
16766;SDS011;8501;49.926;8.404;2023-07-16T09:25:59;7.07;;;3.40;;
16766;SDS011;8501;49.926;8.404;2023-07-16T09:28:25;7.45;;;3.45;;
16766;SDS011;8501;49.926;8.404;2023-07-16T09:30:51;7.35;;;3.50;;
16766;SDS011;8501;49.926;8.404;2023-07-16T09:33:21;7.28;;;3.90;;
16766;SDS011;8501;49.926;8.404;2023-07-16T09:35:48;6.47;;;3.30;;
16766;SDS011;8501;49.926;8.404;2023-07-16T09:38:14;5.43;;;3.25;;
16766;SDS011;8501;49.926;8.404;2023-07-16T09:40:41;8.52;;;3.25;;
16766;SDS011;8501;49.926;8.404;2023-07-16T09:43:08;8.88;;;3.42;;
16766;SDS011;8501;49.926;8.404;2023-07-16T09:45:34;5.63;;;3.42;;
16766;SDS011;8501;49.926;8.404;2023-07-16T09:48:00;6.30;;;3.22;;
16766;SDS011;8501;49.926;8.404;2023-07-16T09:50:27;5.95;;;3.20;;
16766;SDS011;8501;49.926;8.404;2023-07-16T09:52:55;8.23;;;3.08;;
16766;SDS011;8501;49.926;8.404;2023-07-16T09:55:22;6.30;;;3.22;;
16766;SDS011;8501;49.926;8.404;2023-07-16T09:57:48;4.68;;;3.08;;
16766;SDS011;8501;49.926;8.404;2023-07-16T10:00:15;7.78;;;3.47;;
16766;SDS011;8501;49.926;8.404;2023-07-16T10:02:42;6.85;;;3.60;;
16766;SDS011;8501;49.926;8.404;2023-07-16T10:05:26;6.70;;;3.20;;
16766;SDS011;8501;49.926;8.404;2023-07-16T10:07:59;6.72;;;3.42;;
16766;SDS011;8501;49.926;8.404;2023-07-16T10:11:14;4.68;;;3.28;;
16766;SDS011;8501;49.926;8.404;2023-07-16T10:13:22;7.20;;;2.92;;
16766;SDS011;8501;49.926;8.404;2023-07-16T10:15:55;4.47;;;3.28;;
16766;SDS011;8501;49.926;8.404;2023-07-16T10:18:29;7.47;;;3.47;;
16766;SDS011;8501;49.926;8.404;2023-07-16T10:21:00;8.43;;;3.22;;
16766;SDS011;8501;49.926;8.404;2023-07-16T10:23:40;8.63;;;3.67;;
16766;SDS011;8501;49.926;8.404;2023-07-16T10:26:07;6.53;;;2.83;;
16766;SDS011;8501;49.926;8.404;2023-07-16T10:28:35;6.07;;;3.40;;
16766;SDS011;8501;49.926;8.404;2023-07-16T10:31:02;8.15;;;3.20;;
16766;SDS011;8501;49.926;8.404;2023-07-16T10:33:27;5.57;;;3.10;;
16766;SDS011;8501;49.926;8.404;2023-07-16T10:35:55;7.03;;;3.33;;
16766;SDS011;8501;49.926;8.404;2023-07-16T10:38:22;7.53;;;3.20;;
16766;SDS011;8501;49.926;8.404;2023-07-16T10:40:48;7.80;;;3.47;;
16766;SDS011;8501;49.926;8.404;2023-07-16T10:43:14;5.93;;;3.13;;
16766;SDS011;8501;49.926;8.404;2023-07-16T10:45:40;5.55;;;3.20;;
16766;SDS011;8501;49.926;8.404;2023-07-16T10:48:06;5.30;;;3.10;;
16766;SDS011;8501;49.926;8.404;2023-07-16T10:50:32;8.20;;;3.20;;
16766;SDS011;8501;49.926;8.404;2023-07-16T10:52:59;5.75;;;3.08;;
16766;SDS011;8501;49.926;8.404;2023-07-16T10:55:26;6.20;;;3.08;;
16766;SDS011;8501;49.926;8.404;2023-07-16T10:57:52;5.40;;;2.90;;
16766;SDS011;8501;49.926;8.404;2023-07-16T11:00:19;7.13;;;3.00;;
16766;SDS011;8501;49.926;8.404;2023-07-16T11:02:46;6.28;;;3.25;;
16766;SDS011;8501;49.926;8.404;2023-07-16T11:05:13;8.25;;;3.13;;
16766;SDS011;8501;49.926;8.404;2023-07-16T11:07:43;7.32;;;2.90;;
16766;SDS011;8501;49.926;8.404;2023-07-16T11:10:12;7.00;;;2.85;;
16766;SDS011;8501;49.926;8.404;2023-07-16T11:12:41;4.53;;;2.65;;
16766;SDS011;8501;49.926;8.404;2023-07-16T11:15:07;4.55;;;2.97;;
16766;SDS011;8501;49.926;8.404;2023-07-16T11:17:33;5.38;;;2.88;;
16766;SDS011;8501;49.926;8.404;2023-07-16T11:19:59;6.28;;;2.70;;
16766;SDS011;8501;49.926;8.404;2023-07-16T11:22:26;5.18;;;3.13;;
16766;SDS011;8501;49.926;8.404;2023-07-16T11:24:52;5.18;;;3.05;;
16766;SDS011;8501;49.926;8.404;2023-07-16T11:27:20;4.45;;;2.65;;
16766;SDS011;8501;49.926;8.404;2023-07-16T11:29:53;6.22;;;3.25;;
16766;SDS011;8501;49.926;8.404;2023-07-16T11:32:30;6.72;;;2.72;;
16766;SDS011;8501;49.926;8.404;2023-07-16T11:35:04;6.88;;;3.10;;
16766;SDS011;8501;49.926;8.404;2023-07-16T11:37:32;6.55;;;2.97;;
16766;SDS011;8501;49.926;8.404;2023-07-16T11:40:00;4.35;;;3.22;;
16766;SDS011;8501;49.926;8.404;2023-07-16T11:42:29;4.28;;;3.00;;
16766;SDS011;8501;49.926;8.404;2023-07-16T11:44:55;5.20;;;2.95;;
16766;SDS011;8501;49.926;8.404;2023-07-16T11:47:21;6.15;;;2.95;;
16766;SDS011;8501;49.926;8.404;2023-07-16T11:49:48;6.18;;;3.13;;
16766;SDS011;8501;49.926;8.404;2023-07-16T11:52:14;5.80;;;3.15;;
16766;SDS011;8501;49.926;8.404;2023-07-16T11:54:44;5.07;;;2.88;;
16766;SDS011;8501;49.926;8.404;2023-07-16T11:57:09;5.63;;;3.05;;
16766;SDS011;8501;49.926;8.404;2023-07-16T11:59:35;6.07;;;3.00;;
16766;SDS011;8501;49.926;8.404;2023-07-16T12:02:00;6.10;;;3.25;;
16766;SDS011;8501;49.926;8.404;2023-07-16T12:04:27;5.60;;;2.78;;
16766;SDS011;8501;49.926;8.404;2023-07-16T12:06:53;5.13;;;2.95;;
16766;SDS011;8501;49.926;8.404;2023-07-16T12:09:19;5.38;;;3.17;;
16766;SDS011;8501;49.926;8.404;2023-07-16T12:11:44;5.60;;;3.25;;
16766;SDS011;8501;49.926;8.404;2023-07-16T12:14:10;5.18;;;3.00;;
16766;SDS011;8501;49.926;8.404;2023-07-16T12:16:37;5.47;;;2.92;;
16766;SDS011;8501;49.926;8.404;2023-07-16T12:19:05;5.68;;;3.30;;
16766;SDS011;8501;49.926;8.404;2023-07-16T12:21:32;5.10;;;3.10;;
16766;SDS011;8501;49.926;8.404;2023-07-16T12:23:57;6.13;;;3.00;;
16766;SDS011;8501;49.926;8.404;2023-07-16T12:26:23;5.05;;;3.15;;
16766;SDS011;8501;49.926;8.404;2023-07-16T12:28:48;5.47;;;3.20;;
16766;SDS011;8501;49.926;8.404;2023-07-16T12:31:14;7.35;;;3.67;;
16766;SDS011;8501;49.926;8.404;2023-07-16T12:33:41;4.85;;;3.10;;
16766;SDS011;8501;49.926;8.404;2023-07-16T12:36:07;6.30;;;3.30;;
16766;SDS011;8501;49.926;8.404;2023-07-16T12:38:33;5.80;;;3.95;;
16766;SDS011;8501;49.926;8.404;2023-07-16T12:40:59;8.02;;;3.75;;
16766;SDS011;8501;49.926;8.404;2023-07-16T12:43:25;7.78;;;3.80;;
16766;SDS011;8501;49.926;8.404;2023-07-16T12:45:50;4.57;;;3.50;;
16766;SDS011;8501;49.926;8.404;2023-07-16T12:48:16;6.68;;;3.50;;
16766;SDS011;8501;49.926;8.404;2023-07-16T12:50:41;6.15;;;3.60;;
16766;SDS011;8501;49.926;8.404;2023-07-16T12:53:07;7.15;;;3.80;;
16766;SDS011;8501;49.926;8.404;2023-07-16T12:55:33;6.13;;;3.65;;
16766;SDS011;8501;49.926;8.404;2023-07-16T12:57:59;5.70;;;3.80;;
16766;SDS011;8501;49.926;8.404;2023-07-16T13:00:24;5.63;;;3.80;;
16766;SDS011;8501;49.926;8.404;2023-07-16T13:02:50;5.97;;;3.70;;
16766;SDS011;8501;49.926;8.404;2023-07-16T13:05:15;6.30;;;4.00;;
16766;SDS011;8501;49.926;8.404;2023-07-16T13:07:41;6.03;;;3.45;;
16766;SDS011;8501;49.926;8.404;2023-07-16T13:10:07;6.80;;;4.00;;
16766;SDS011;8501;49.926;8.404;2023-07-16T13:12:33;4.78;;;4.00;;
16766;SDS011;8501;49.926;8.404;2023-07-16T13:14:59;6.47;;;3.92;;
16766;SDS011;8501;49.926;8.404;2023-07-16T13:17:25;6.60;;;3.83;;
16766;SDS011;8501;49.926;8.404;2023-07-16T13:19:50;7.40;;;4.10;;
16766;SDS011;8501;49.926;8.404;2023-07-16T13:22:16;5.85;;;4.20;;
16766;SDS011;8501;49.926;8.404;2023-07-16T13:24:41;4.97;;;3.75;;
16766;SDS011;8501;49.926;8.404;2023-07-16T13:27:09;6.95;;;3.67;;
16766;SDS011;8501;49.926;8.404;2023-07-16T13:29:35;6.10;;;4.32;;
16766;SDS011;8501;49.926;8.404;2023-07-16T13:32:01;7.22;;;4.22;;
16766;SDS011;8501;49.926;8.404;2023-07-16T13:34:26;6.75;;;4.40;;
16766;SDS011;8501;49.926;8.404;2023-07-16T13:36:52;4.95;;;3.90;;
16766;SDS011;8501;49.926;8.404;2023-07-16T13:39:17;5.93;;;4.13;;
16766;SDS011;8501;49.926;8.404;2023-07-16T13:41:44;7.53;;;4.38;;
16766;SDS011;8501;49.926;8.404;2023-07-16T13:44:10;7.65;;;4.32;;
16766;SDS011;8501;49.926;8.404;2023-07-16T13:46:35;8.55;;;4.47;;
16766;SDS011;8501;49.926;8.404;2023-07-16T13:49:02;5.75;;;3.95;;
16766;SDS011;8501;49.926;8.404;2023-07-16T13:51:28;7.43;;;4.50;;
16766;SDS011;8501;49.926;8.404;2023-07-16T13:53:53;7.28;;;4.32;;
16766;SDS011;8501;49.926;8.404;2023-07-16T13:56:19;7.97;;;4.75;;
16766;SDS011;8501;49.926;8.404;2023-07-16T13:58:44;6.25;;;4.30;;
16766;SDS011;8501;49.926;8.404;2023-07-16T14:01:10;7.28;;;4.45;;
16766;SDS011;8501;49.926;8.404;2023-07-16T14:03:36;5.10;;;4.40;;
16766;SDS011;8501;49.926;8.404;2023-07-16T14:06:01;6.40;;;4.70;;
16766;SDS011;8501;49.926;8.404;2023-07-16T14:08:27;8.30;;;4.65;;
16766;SDS011;8501;49.926;8.404;2023-07-16T14:10:53;6.72;;;4.53;;
16766;SDS011;8501;49.926;8.404;2023-07-16T14:13:19;8.23;;;4.50;;
16766;SDS011;8501;49.926;8.404;2023-07-16T14:15:44;7.88;;;4.60;;
16766;SDS011;8501;49.926;8.404;2023-07-16T14:18:10;5.75;;;4.15;;
16766;SDS011;8501;49.926;8.404;2023-07-16T14:20:36;7.32;;;4.43;;
16766;SDS011;8501;49.926;8.404;2023-07-16T14:23:03;5.70;;;4.20;;
16766;SDS011;8501;49.926;8.404;2023-07-16T14:25:29;7.85;;;4.65;;
16766;SDS011;8501;49.926;8.404;2023-07-16T14:27:55;7.63;;;5.03;;
16766;SDS011;8501;49.926;8.404;2023-07-16T14:30:20;7.80;;;5.00;;
16766;SDS011;8501;49.926;8.404;2023-07-16T14:32:46;6.78;;;4.47;;
16766;SDS011;8501;49.926;8.404;2023-07-16T14:35:11;5.82;;;3.83;;
16766;SDS011;8501;49.926;8.404;2023-07-16T14:37:37;9.45;;;4.55;;
16766;SDS011;8501;49.926;8.404;2023-07-16T14:40:04;7.47;;;4.60;;
16766;SDS011;8501;49.926;8.404;2023-07-16T14:42:33;7.20;;;4.60;;
16766;SDS011;8501;49.926;8.404;2023-07-16T14:45:05;7.15;;;4.75;;
16766;SDS011;8501;49.926;8.404;2023-07-16T14:47:33;8.07;;;4.97;;
16766;SDS011;8501;49.926;8.404;2023-07-16T14:49:59;9.43;;;4.82;;
16766;SDS011;8501;49.926;8.404;2023-07-16T14:52:24;8.68;;;5.13;;
16766;SDS011;8501;49.926;8.404;2023-07-16T14:54:50;8.73;;;5.30;;
16766;SDS011;8501;49.926;8.404;2023-07-16T14:57:15;9.23;;;5.38;;
16766;SDS011;8501;49.926;8.404;2023-07-16T14:59:42;8.32;;;5.43;;